PWSweather.com
Personal Weather Stations
Station Observations
KNYSIDNE1
East Masonville, Masonville, NY 13804

East MasonvilleMasonville, NY 13804

Lat: 42.26, Lon: -75.31

Elevation: 1581

Station Type: Davis WMII

http://eastmasonvilleweather.com

High Low Average
Temperature 58.4°F14.7°C 31.1°F-0.5°C 41.7°F5.4°C
Dew Point 46.0°F7.8°C 29.8°F-1.2°C 37.2°F2.9°C
Winds 2.3 mph 3.7 kmh Calm Calm Calm SECalm SE
Wind Gusts 3.5 mph5.6 kmh -- 1.0 mph1.6 kmh
Humidity 98% 56% 86%
Pressure 30.11 in1019.6 mb 30.02 in1016.6 mb -
Precipitation 0.01 in0.3 mm - -
Hour Temp Dew Point Humidity Winds Wind Gusts Pressure Precip Precip Rate Daily Precip Total
12:00 AM 38.4°F3.6°C 36.8°F2.7°C 94% Calm Calm -- 30.05 in1017.6 mb - 0.00 in0.0 mm 0.00 in0.0 mm
12:10 AM 38.3°F3.5°C 36.7°F2.6°C 94% Calm Calm -- 30.06 in1017.9 mb - 0.00 in0.0 mm 0.00 in0.0 mm
12:20 AM 38.2°F3.4°C 36.6°F2.6°C 94% Calm Calm -- 30.06 in1017.9 mb - 0.00 in0.0 mm 0.00 in0.0 mm
12:30 AM 38.1°F3.4°C 36.5°F2.5°C 94% Calm Calm -- 30.06 in1017.9 mb - 0.00 in0.0 mm 0.00 in0.0 mm
12:40 AM 38.0°F3.3°C 36.4°F2.4°C 94% Calm Calm -- 30.06 in1017.9 mb - 0.00 in0.0 mm 0.00 in0.0 mm
12:50 AM 38.0°F3.3°C 36.4°F2.4°C 94% Calm Calm -- 30.06 in1017.9 mb - 0.00 in0.0 mm 0.00 in0.0 mm
01:00 AM 38.0°F3.3°C 36.7°F2.6°C 95% Calm Calm -- 30.06 in1017.9 mb - 0.00 in0.0 mm 0.00 in0.0 mm
01:10 AM 38.1°F3.4°C 36.8°F2.7°C 95% Calm Calm -- 30.06 in1017.9 mb - 0.00 in0.0 mm 0.00 in0.0 mm
01:20 AM 38.2°F3.4°C 36.8°F2.7°C 95% Calm Calm -- 30.06 in1017.9 mb - 0.00 in0.0 mm 0.00 in0.0 mm
01:30 AM 38.2°F3.4°C 36.9°F2.7°C 95% Calm Calm -- 30.06 in1017.9 mb - 0.00 in0.0 mm 0.00 in0.0 mm
01:40 AM 38.3°F3.5°C 37.0°F2.8°C 95% Calm Calm -- 30.07 in1018.3 mb - 0.00 in0.0 mm 0.00 in0.0 mm
01:50 AM 38.4°F3.6°C 37.1°F2.8°C 95% Calm Calm -- 30.06 in1017.9 mb - 0.00 in0.0 mm 0.00 in0.0 mm
02:00 AM 38.4°F3.6°C 37.1°F2.8°C 95% Calm Calm -- 30.07 in1018.3 mb - 0.00 in0.0 mm 0.00 in0.0 mm
02:10 AM 38.5°F3.6°C 37.2°F2.9°C 95% Calm Calm -- 30.07 in1018.3 mb - 0.00 in0.0 mm 0.00 in0.0 mm
02:20 AM 38.6°F3.7°C 37.3°F2.9°C 95% Calm Calm -- 30.07 in1018.3 mb - 0.00 in0.0 mm 0.00 in0.0 mm
02:30 AM 38.6°F3.7°C 37.3°F2.9°C 95% Calm Calm -- 30.07 in1018.3 mb - 0.00 in0.0 mm 0.00 in0.0 mm
02:40 AM 38.6°F3.7°C 37.3°F2.9°C 95% Calm Calm -- 30.07 in1018.3 mb - 0.00 in0.0 mm 0.00 in0.0 mm
02:50 AM 38.5°F3.6°C 36.9°F2.7°C 94% Calm Calm -- 30.06 in1017.9 mb - 0.00 in0.0 mm 0.00 in0.0 mm
03:00 AM 38.3°F3.5°C 36.7°F2.6°C 94% Calm Calm -- 30.06 in1017.9 mb - 0.00 in0.0 mm 0.00 in0.0 mm
03:10 AM 38.3°F3.5°C 36.7°F2.6°C 94% Calm Calm -- 30.06 in1017.9 mb - 0.00 in0.0 mm 0.00 in0.0 mm
03:20 AM 38.0°F3.3°C 36.4°F2.4°C 94% Calm Calm -- 30.05 in1017.6 mb - 0.00 in0.0 mm 0.00 in0.0 mm
03:30 AM 37.5°F3.1°C 35.7°F2.1°C 93% Calm Calm -- 30.05 in1017.6 mb - 0.00 in0.0 mm 0.00 in0.0 mm
03:40 AM 36.9°F2.7°C 35.1°F1.7°C 93% Calm Calm -- 30.05 in1017.6 mb - 0.00 in0.0 mm 0.00 in0.0 mm
03:50 AM 36.3°F2.4°C 34.5°F1.4°C 93% Calm Calm -- 30.05 in1017.6 mb - 0.00 in0.0 mm 0.00 in0.0 mm
04:00 AM 35.9°F2.2°C 34.1°F1.2°C 93% Calm Calm -- 30.05 in1017.6 mb - 0.00 in0.0 mm 0.00 in0.0 mm
04:10 AM 35.4°F1.9°C 33.6°F0.9°C 93% Calm Calm -- 30.05 in1017.6 mb - 0.00 in0.0 mm 0.00 in0.0 mm
04:20 AM 34.9°F1.6°C 33.1°F0.6°C 93% Calm Calm -- 30.05 in1017.6 mb - 0.00 in0.0 mm 0.00 in0.0 mm
04:30 AM 34.3°F1.3°C 32.5°F0.3°C 93% Calm Calm -- 30.05 in1017.6 mb - 0.00 in0.0 mm 0.00 in0.0 mm
04:40 AM 33.8°F1.0°C 32.0°F0.0°C 93% Calm Calm -- 30.05 in1017.6 mb - 0.00 in0.0 mm 0.00 in0.0 mm
04:50 AM 33.4°F0.8°C 31.6°F-0.2°C 93% Calm Calm -- 30.05 in1017.6 mb - 0.00 in0.0 mm 0.00 in0.0 mm
05:00 AM 33.1°F0.6°C 31.6°F-0.2°C 94% Calm Calm -- 30.06 in1017.9 mb - 0.00 in0.0 mm 0.00 in0.0 mm
05:10 AM 32.8°F0.4°C 31.3°F-0.4°C 94% Calm Calm -- 30.06 in1017.9 mb - 0.00 in0.0 mm 0.00 in0.0 mm
05:20 AM 32.5°F0.3°C 31.0°F-0.6°C 94% Calm Calm -- 30.06 in1017.9 mb - 0.00 in0.0 mm 0.00 in0.0 mm
05:30 AM 32.3°F0.2°C 30.8°F-0.7°C 94% Calm Calm -- 30.06 in1017.9 mb - 0.00 in0.0 mm 0.00 in0.0 mm
05:40 AM 32.1°F0.1°C 30.6°F-0.8°C 94% Calm Calm -- 30.06 in1017.9 mb - 0.00 in0.0 mm 0.00 in0.0 mm
05:50 AM 32.0°F0.0°C 30.7°F-0.7°C 95% Calm Calm -- 30.06 in1017.9 mb - 0.00 in0.0 mm 0.00 in0.0 mm
06:00 AM 31.9°F-0.1°C 30.6°F-0.8°C 95% Calm Calm -- 30.06 in1017.9 mb - 0.00 in0.0 mm 0.00 in0.0 mm
06:10 AM 31.8°F-0.1°C 30.3°F-0.9°C 94% Calm Calm -- 30.06 in1017.9 mb - 0.00 in0.0 mm 0.00 in0.0 mm
06:20 AM 31.7°F-0.2°C 30.4°F-0.9°C 95% Calm Calm -- 30.07 in1018.3 mb - 0.00 in0.0 mm 0.00 in0.0 mm
06:30 AM 31.5°F-0.3°C 30.3°F-0.9°C 95% Calm Calm -- 30.07 in1018.3 mb - 0.00 in0.0 mm 0.00 in0.0 mm
06:40 AM 31.4°F-0.3°C 30.2°F-1.0°C 95% Calm Calm -- 30.07 in1018.3 mb - 0.00 in0.0 mm 0.00 in0.0 mm
06:50 AM 31.3°F-0.4°C 30.0°F-1.1°C 95% Calm Calm -- 30.08 in1018.6 mb - 0.00 in0.0 mm 0.00 in0.0 mm
07:00 AM 31.2°F-0.4°C 29.9°F-1.2°C 95% Calm Calm -- 30.08 in1018.6 mb - 0.00 in0.0 mm 0.00 in0.0 mm
07:10 AM 31.1°F-0.5°C 29.8°F-1.2°C 95% Calm Calm -- 30.09 in1019.0 mb - 0.00 in0.0 mm 0.00 in0.0 mm
07:20 AM 31.2°F-0.4°C 29.9°F-1.2°C 95% Calm Calm -- 30.09 in1019.0 mb - 0.00 in0.0 mm 0.00 in0.0 mm
07:30 AM 31.4°F-0.3°C 30.4°F-0.9°C 96% Calm Calm -- 30.10 in1019.3 mb - 0.00 in0.0 mm 0.00 in0.0 mm
07:40 AM 31.6°F-0.2°C 30.6°F-0.8°C 96% Calm Calm -- 30.10 in1019.3 mb - 0.00 in0.0 mm 0.00 in0.0 mm
07:50 AM 31.8°F-0.1°C 30.8°F-0.7°C 96% Calm Calm -- 30.10 in1019.3 mb - 0.00 in0.0 mm 0.00 in0.0 mm
08:00 AM 32.0°F0.0°C 31.0°F-0.6°C 96% Calm Calm -- 30.10 in1019.3 mb - 0.00 in0.0 mm 0.00 in0.0 mm
08:10 AM 32.3°F0.2°C 31.3°F-0.4°C 96% Calm Calm -- 30.10 in1019.3 mb - 0.00 in0.0 mm 0.00 in0.0 mm
08:20 AM 32.8°F0.4°C 31.8°F-0.1°C 96% Calm Calm -- 30.10 in1019.3 mb - 0.00 in0.0 mm 0.00 in0.0 mm
08:30 AM 33.3°F0.7°C 32.6°F0.3°C 97% Calm Calm -- 30.10 in1019.3 mb - 0.00 in0.0 mm 0.00 in0.0 mm
08:40 AM 33.9°F1.1°C 33.1°F0.6°C 97% Calm Calm -- 30.10 in1019.3 mb - 0.00 in0.0 mm 0.00 in0.0 mm
08:50 AM 34.5°F1.4°C 33.7°F0.9°C 97% Calm Calm -- 30.11 in1019.6 mb - 0.00 in0.0 mm 0.00 in0.0 mm
09:00 AM 35.2°F1.8°C 34.4°F1.3°C 97% Calm Calm -- 30.11 in1019.6 mb - 0.01 in0.3 mm 0.01 in0.3 mm
09:10 AM 36.0°F2.2°C 35.5°F1.9°C 98% Calm Calm -- 30.11 in1019.6 mb - 0.00 in0.0 mm 0.01 in0.3 mm
09:20 AM 36.4°F2.4°C 35.9°F2.2°C 98% Calm Calm -- 30.11 in1019.6 mb - 0.00 in0.0 mm 0.01 in0.3 mm
09:30 AM 36.9°F2.7°C 36.2°F2.3°C 97% Calm Calm -- 30.11 in1019.6 mb - 0.00 in0.0 mm 0.01 in0.3 mm
09:40 AM 37.8°F3.2°C 37.3°F2.9°C 98% Calm Calm 1.2 mph1.9 kmh 30.11 in1019.6 mb - 0.00 in0.0 mm 0.01 in0.3 mm
09:50 AM 39.4°F4.1°C 38.8°F3.8°C 98% Calm Calm 1.2 mph1.9 kmh 30.10 in1019.3 mb - 0.00 in0.0 mm 0.01 in0.3 mm
10:00 AM 40.3°F4.6°C 39.8°F4.3°C 98% Calm Calm 1.2 mph1.9 kmh 30.10 in1019.3 mb - 0.00 in0.0 mm 0.01 in0.3 mm
10:10 AM 41.0°F5.0°C 40.4°F4.7°C 98% 1.2 mph SE1.9 kmh SE 3.5 mph5.6 kmh 30.10 in1019.3 mb - 0.00 in0.0 mm 0.01 in0.3 mm
10:20 AM 42.0°F5.6°C 41.5°F5.3°C 98% Calm Calm -- 30.11 in1019.6 mb - 0.00 in0.0 mm 0.01 in0.3 mm
10:30 AM 42.4°F5.8°C 41.9°F5.5°C 98% Calm Calm 1.2 mph1.9 kmh 30.10 in1019.3 mb - 0.00 in0.0 mm 0.01 in0.3 mm
10:40 AM 43.2°F6.2°C 42.7°F5.9°C 98% Calm Calm 2.3 mph3.7 kmh 30.11 in1019.6 mb - 0.00 in0.0 mm 0.01 in0.3 mm
10:50 AM 44.0°F6.7°C 43.0°F6.1°C 96% Calm Calm -- 30.11 in1019.6 mb - 0.00 in0.0 mm 0.01 in0.3 mm
11:00 AM 45.0°F7.2°C 43.1°F6.2°C 93% 1.2 mph ENE1.9 kmh ENE 2.3 mph3.7 kmh 30.10 in1019.3 mb - 0.00 in0.0 mm 0.01 in0.3 mm
11:10 AM 46.4°F8.0°C 43.7°F6.5°C 90% 1.2 mph E1.9 kmh E 3.5 mph5.6 kmh 30.10 in1019.3 mb - 0.00 in0.0 mm 0.01 in0.3 mm
11:20 AM 47.9°F8.8°C 43.9°F6.6°C 86% Calm Calm 1.2 mph1.9 kmh 30.10 in1019.3 mb - 0.00 in0.0 mm 0.01 in0.3 mm
11:30 AM 49.2°F9.6°C 43.9°F6.6°C 82% 1.2 mph S1.9 kmh S 3.5 mph5.6 kmh 30.10 in1019.3 mb - 0.00 in0.0 mm 0.01 in0.3 mm
11:40 AM 50.3°F10.2°C 43.0°F6.1°C 76% 1.2 mph S1.9 kmh S 3.5 mph5.6 kmh 30.10 in1019.3 mb - 0.00 in0.0 mm 0.01 in0.3 mm
11:50 AM 51.4°F10.8°C 45.1°F7.3°C 79% Calm Calm 2.3 mph3.7 kmh 30.10 in1019.3 mb - 0.00 in0.0 mm 0.01 in0.3 mm
12:00 PM 52.5°F11.4°C 43.7°F6.5°C 72% Calm Calm 2.3 mph3.7 kmh 30.10 in1019.3 mb - 0.00 in0.0 mm 0.01 in0.3 mm
12:10 PM 52.2°F11.2°C 42.3°F5.7°C 69% 1.2 mph WSW1.9 kmh WSW 2.3 mph3.7 kmh 30.10 in1019.3 mb - 0.00 in0.0 mm 0.01 in0.3 mm
12:20 PM 53.4°F11.9°C 44.9°F7.2°C 73% 1.2 mph ENE1.9 kmh ENE 3.5 mph5.6 kmh 30.10 in1019.3 mb - 0.00 in0.0 mm 0.01 in0.3 mm
12:30 PM 54.4°F12.4°C 44.1°F6.7°C 68% Calm Calm 1.2 mph1.9 kmh 30.09 in1019.0 mb - 0.00 in0.0 mm 0.01 in0.3 mm
12:40 PM 55.0°F12.8°C 44.2°F6.8°C 67% Calm Calm -- 30.09 in1019.0 mb - 0.00 in0.0 mm 0.01 in0.3 mm
12:50 PM 55.3°F12.9°C 46.0°F7.8°C 71% 1.2 mph ESE1.9 kmh ESE 3.5 mph5.6 kmh 30.08 in1018.6 mb - 0.00 in0.0 mm 0.01 in0.3 mm
01:00 PM 55.5°F13.1°C 42.7°F5.9°C 62% Calm Calm 1.2 mph1.9 kmh 30.08 in1018.6 mb - 0.00 in0.0 mm 0.01 in0.3 mm
01:10 PM 55.2°F12.9°C 42.8°F6.0°C 63% 1.2 mph NE1.9 kmh NE 2.3 mph3.7 kmh 30.07 in1018.3 mb - 0.00 in0.0 mm 0.01 in0.3 mm
01:20 PM 55.1°F12.8°C 42.7°F5.9°C 63% Calm Calm 2.3 mph3.7 kmh 30.07 in1018.3 mb - 0.00 in0.0 mm 0.01 in0.3 mm
01:30 PM 55.1°F12.8°C 42.7°F5.9°C 63% 1.2 mph SE1.9 kmh SE 2.3 mph3.7 kmh 30.07 in1018.3 mb - 0.00 in0.0 mm 0.01 in0.3 mm
01:40 PM 55.1°F12.8°C 40.6°F4.8°C 58% 2.3 mph NW3.7 kmh NW 2.3 mph3.7 kmh 30.06 in1017.9 mb - 0.00 in0.0 mm 0.01 in0.3 mm
01:50 PM 54.9°F12.7°C 39.5°F4.2°C 56% 1.2 mph NW1.9 kmh NW 3.5 mph5.6 kmh 30.06 in1017.9 mb - 0.00 in0.0 mm 0.01 in0.3 mm
02:00 PM 55.3°F12.9°C 42.5°F5.8°C 62% 2.3 mph S3.7 kmh S 3.5 mph5.6 kmh 30.06 in1017.9 mb - 0.00 in0.0 mm 0.01 in0.3 mm
02:10 PM 56.8°F13.8°C 41.7°F5.4°C 57% 1.2 mph S1.9 kmh S 1.2 mph1.9 kmh 30.06 in1017.9 mb - 0.00 in0.0 mm 0.01 in0.3 mm
02:20 PM 57.6°F14.2°C 43.8°F6.6°C 60% 2.3 mph SSE3.7 kmh SSE 3.5 mph5.6 kmh 30.05 in1017.6 mb - 0.00 in0.0 mm 0.01 in0.3 mm
02:30 PM 58.3°F14.6°C 42.7°F5.9°C 56% Calm Calm 1.2 mph1.9 kmh 30.05 in1017.6 mb - 0.00 in0.0 mm 0.01 in0.3 mm
02:40 PM 58.4°F14.7°C 42.8°F6.0°C 56% Calm Calm 1.2 mph1.9 kmh 30.05 in1017.6 mb - 0.00 in0.0 mm 0.01 in0.3 mm
02:50 PM 57.2°F14.0°C 42.1°F5.6°C 57% Calm Calm 1.2 mph1.9 kmh 30.04 in1017.3 mb - 0.00 in0.0 mm 0.01 in0.3 mm
03:00 PM 56.1°F13.4°C 41.5°F5.3°C 58% 1.2 mph S1.9 kmh S 3.5 mph5.6 kmh 30.04 in1017.3 mb - 0.00 in0.0 mm 0.01 in0.3 mm
03:10 PM 55.2°F12.9°C 41.5°F5.3°C 60% Calm Calm 2.3 mph3.7 kmh 30.04 in1017.3 mb - 0.00 in0.0 mm 0.01 in0.3 mm
03:20 PM 54.5°F12.5°C 40.5°F4.7°C 59% 1.2 mph S1.9 kmh S 2.3 mph3.7 kmh 30.04 in1017.3 mb - 0.00 in0.0 mm 0.01 in0.3 mm
03:30 PM 54.0°F12.2°C 40.4°F4.7°C 60% Calm Calm 2.3 mph3.7 kmh 30.04 in1017.3 mb - 0.00 in0.0 mm 0.01 in0.3 mm
03:40 PM 53.7°F12.1°C 40.5°F4.7°C 61% 2.3 mph SSW3.7 kmh SSW 3.5 mph5.6 kmh 30.04 in1017.3 mb - 0.00 in0.0 mm 0.01 in0.3 mm
03:50 PM 53.5°F11.9°C 40.4°F4.7°C 61% 1.2 mph S1.9 kmh S 2.3 mph3.7 kmh 30.04 in1017.3 mb - 0.00 in0.0 mm 0.01 in0.3 mm
04:00 PM 53.4°F11.9°C 39.8°F4.3°C 60% 1.2 mph S1.9 kmh S 2.3 mph3.7 kmh 30.04 in1017.3 mb - 0.00 in0.0 mm 0.01 in0.3 mm
04:10 PM 53.3°F11.8°C 39.3°F4.1°C 59% Calm Calm 1.2 mph1.9 kmh 30.04 in1017.3 mb - 0.00 in0.0 mm 0.01 in0.3 mm
04:20 PM 53.3°F11.8°C 39.8°F4.3°C 60% Calm Calm -- 30.04 in1017.3 mb - 0.00 in0.0 mm 0.01 in0.3 mm
04:30 PM 53.4°F11.9°C 39.0°F3.9°C 58% 1.2 mph W1.9 kmh W 1.2 mph1.9 kmh 30.04 in1017.3 mb - 0.00 in0.0 mm 0.01 in0.3 mm
04:40 PM 53.5°F11.9°C 40.8°F4.9°C 62% 1.2 mph S1.9 kmh S 2.3 mph3.7 kmh 30.03 in1016.9 mb - 0.00 in0.0 mm 0.01 in0.3 mm
04:50 PM 53.2°F11.8°C 42.1°F5.6°C 66% Calm Calm -- 30.03 in1016.9 mb - 0.00 in0.0 mm 0.01 in0.3 mm
05:00 PM 52.6°F11.4°C 41.9°F5.5°C 67% Calm Calm -- 30.02 in1016.6 mb - 0.00 in0.0 mm 0.01 in0.3 mm
05:10 PM 51.9°F11.1°C 42.0°F5.6°C 69% Calm Calm -- 30.02 in1016.6 mb - 0.00 in0.0 mm 0.01 in0.3 mm
05:20 PM 51.0°F10.6°C 43.4°F6.3°C 75% Calm Calm -- 30.02 in1016.6 mb - 0.00 in0.0 mm 0.01 in0.3 mm
05:30 PM 50.3°F10.2°C 43.0°F6.1°C 76% Calm Calm -- 30.03 in1016.9 mb - 0.00 in0.0 mm 0.01 in0.3 mm
05:40 PM 49.4°F9.7°C 42.8°F6.0°C 78% Calm Calm -- 30.02 in1016.6 mb - 0.00 in0.0 mm 0.01 in0.3 mm
05:50 PM 48.7°F9.3°C 43.5°F6.4°C 82% Calm Calm -- 30.02 in1016.6 mb - 0.00 in0.0 mm 0.01 in0.3 mm
06:00 PM 48.0°F8.9°C 42.7°F5.9°C 82% Calm Calm -- 30.02 in1016.6 mb - 0.00 in0.0 mm 0.01 in0.3 mm
06:10 PM 47.3°F8.5°C 42.4°F5.8°C 83% Calm Calm -- 30.02 in1016.6 mb - 0.00 in0.0 mm 0.01 in0.3 mm
06:20 PM 46.4°F8.0°C 41.6°F5.3°C 83% Calm Calm -- 30.03 in1016.9 mb - 0.00 in0.0 mm 0.01 in0.3 mm
06:30 PM 45.7°F7.6°C 41.2°F5.1°C 84% Calm Calm -- 30.02 in1016.6 mb - 0.00 in0.0 mm 0.01 in0.3 mm
06:40 PM 45.0°F7.2°C 40.8°F4.9°C 85% Calm Calm -- 30.02 in1016.6 mb - 0.00 in0.0 mm 0.01 in0.3 mm
06:50 PM 44.3°F6.8°C 40.1°F4.5°C 85% Calm Calm -- 30.02 in1016.6 mb - 0.00 in0.0 mm 0.01 in0.3 mm
07:00 PM 43.6°F6.4°C 39.7°F4.3°C 86% Calm Calm -- 30.02 in1016.6 mb - 0.00 in0.0 mm 0.01 in0.3 mm
07:10 PM 43.0°F6.1°C 39.4°F4.1°C 87% Calm Calm -- 30.03 in1016.9 mb - 0.00 in0.0 mm 0.01 in0.3 mm
07:20 PM 42.3°F5.7°C 39.0°F3.9°C 88% Calm Calm -- 30.03 in1016.9 mb - 0.00 in0.0 mm 0.01 in0.3 mm
07:30 PM 41.7°F5.4°C 38.7°F3.7°C 89% Calm Calm -- 30.03 in1016.9 mb - 0.00 in0.0 mm 0.01 in0.3 mm
07:40 PM 41.1°F5.1°C 38.1°F3.4°C 89% Calm Calm -- 30.03 in1016.9 mb - 0.00 in0.0 mm 0.01 in0.3 mm
07:50 PM 40.6°F4.8°C 37.9°F3.3°C 90% Calm Calm -- 30.04 in1017.3 mb - 0.00 in0.0 mm 0.01 in0.3 mm
08:00 PM 40.2°F4.6°C 37.5°F3.1°C 90% Calm Calm -- 30.04 in1017.3 mb - 0.00 in0.0 mm 0.01 in0.3 mm
08:10 PM 39.9°F4.4°C 37.2°F2.9°C 90% Calm Calm -- 30.04 in1017.3 mb - 0.00 in0.0 mm 0.01 in0.3 mm
08:20 PM 39.5°F4.2°C 37.1°F2.8°C 91% Calm Calm -- 30.03 in1016.9 mb - 0.00 in0.0 mm 0.01 in0.3 mm
08:30 PM 39.3°F4.1°C 36.9°F2.7°C 91% Calm Calm -- 30.03 in1016.9 mb - 0.00 in0.0 mm 0.01 in0.3 mm
08:40 PM 39.0°F3.9°C 36.6°F2.6°C 91% Calm Calm -- 30.03 in1016.9 mb - 0.00 in0.0 mm 0.01 in0.3 mm
08:50 PM 38.7°F3.7°C 36.3°F2.4°C 91% Calm Calm -- 30.02 in1016.6 mb - 0.00 in0.0 mm 0.01 in0.3 mm
09:00 PM 38.5°F3.6°C 36.4°F2.4°C 92% Calm Calm -- 30.03 in1016.9 mb - 0.00 in0.0 mm 0.01 in0.3 mm
09:10 PM 38.2°F3.4°C 36.1°F2.3°C 92% Calm Calm -- 30.03 in1016.9 mb - 0.00 in0.0 mm 0.01 in0.3 mm
09:20 PM 38.0°F3.3°C 35.6°F2.0°C 91% Calm Calm -- 30.03 in1016.9 mb - 0.00 in0.0 mm 0.01 in0.3 mm
09:30 PM 37.7°F3.2°C 35.6°F2.0°C 92% Calm Calm -- 30.03 in1016.9 mb - 0.00 in0.0 mm 0.01 in0.3 mm
09:40 PM 37.7°F3.2°C 35.9°F2.2°C 93% Calm Calm -- 30.02 in1016.6 mb - 0.00 in0.0 mm 0.01 in0.3 mm
09:50 PM 37.5°F3.1°C 35.7°F2.1°C 93% Calm Calm -- 30.03 in1016.9 mb - 0.00 in0.0 mm 0.01 in0.3 mm
10:00 PM 37.2°F2.9°C 34.8°F1.6°C 91% Calm Calm -- 30.03 in1016.9 mb - 0.00 in0.0 mm 0.01 in0.3 mm
10:10 PM 36.7°F2.6°C 34.6°F1.4°C 92% Calm Calm -- 30.03 in1016.9 mb - 0.00 in0.0 mm 0.01 in0.3 mm
10:20 PM 36.5°F2.5°C 34.4°F1.3°C 92% Calm Calm -- 30.04 in1017.3 mb - 0.00 in0.0 mm 0.01 in0.3 mm
10:30 PM 36.2°F2.3°C 34.1°F1.2°C 92% Calm Calm -- 30.03 in1016.9 mb - 0.00 in0.0 mm 0.01 in0.3 mm
10:40 PM 35.9°F2.2°C 33.8°F1.0°C 92% Calm Calm -- 30.04 in1017.3 mb - 0.00 in0.0 mm 0.01 in0.3 mm
10:50 PM 35.8°F2.1°C 34.0°F1.1°C 93% Calm Calm -- 30.04 in1017.3 mb - 0.00 in0.0 mm 0.01 in0.3 mm
11:00 PM 35.7°F2.1°C 33.9°F1.1°C 93% Calm Calm -- 30.03 in1016.9 mb - 0.00 in0.0 mm 0.01 in0.3 mm
11:10 PM 35.5°F1.9°C 33.7°F0.9°C 93% Calm Calm -- 30.04 in1017.3 mb - 0.00 in0.0 mm 0.01 in0.3 mm
11:20 PM 35.4°F1.9°C 33.8°F1.0°C 94% Calm Calm -- 30.03 in1016.9 mb - 0.00 in0.0 mm 0.01 in0.3 mm
11:30 PM 35.3°F1.8°C 33.5°F0.8°C 93% Calm Calm -- 30.03 in1016.9 mb - 0.00 in0.0 mm 0.01 in0.3 mm
11:40 PM 35.0°F1.7°C 33.2°F0.7°C 93% Calm Calm -- 30.03 in1016.9 mb - 0.00 in0.0 mm 0.01 in0.3 mm
11:50 PM 34.5°F1.4°C 32.4°F0.2°C 92% Calm Calm -- 30.03 in1016.9 mb - 0.00 in0.0 mm 0.01 in0.3 mm